Reportes METAR Cercanos

 

LEMD - Madrid/Barajas, Spain
Distance from station: N 10km
Updated: 22/05/2018 11:30
Poco nuboso
Poco nuboso
 Viento del ESE
Viento: ESE 7 km/h
Temperatura: 21°C
Rocío: 13°C
Humedad: 60%
Barómetro: 1015 hPa
Clouds: Poco nuboso
Visibility: 10 km
Cloud details: Poco nuboso 914 m
2018/05/22 11:30 LEMD 221130Z 11004KT 9999 FEW030 21/13 Q1015 NOSIG
LETO - Torrejon (usafb), Spain
Distance from station: NNE 13km
Updated: 22/05/2018 11:00
Poco nuboso
Poco nuboso
 Viento del OSO
Viento: OSO 2 km/h
Temperatura: 21°C
Rocío: 13°C
Humedad: 60%
Barómetro: 1015 hPa
Clouds: Poco nuboso
Visibility: 10 km
Cloud details: Poco nuboso 1067 m
2018/05/22 11:00 LETO 221100Z 24001KT 9999 FEW035 21/13 Q1015 NOSIG
 
LEGT - Madrid/Getafe (a, Spain
Distance from station: OSO 18km
Updated: 22/05/2018 11:00
Poco nuboso
Poco nuboso
 Viento del ESE
Viento: ESE 6 km/h
Temperatura: 22°C
Rocío: 13°C
Humedad: 57%
Barómetro: 1015 hPa
Clouds: Poco nuboso
Visibility: 10 km
Cloud details: Poco nuboso 914 m
2018/05/22 11:00 LEGT 221100Z 11003KT 9999 FEW030TCU 22/13 Q1015
LEVS - Madrid/Cuatro Vi, Spain
Distance from station: O 20km
Updated: 22/05/2018 11:30
Poco nuboso
Poco nuboso
 Viento del ESE
Viento: ESE 7 km/h
Temperatura: 23°C
Rocío: 11°C
Humedad: 47%
Barómetro: 1015 hPa
Clouds: Poco nuboso
Visibility: 10 km
Cloud details: Poco nuboso 1158 m
2018/05/22 11:30 LEVS 221130Z 12004KT 050V220 9999 FEW038 23/11 Q1015
 
LECV - Madri-Colmenar, Spain
Distance from station: NNO 34km
Updated: 22/05/2018 11:00
Parcialmente nuboso
Parcialmente nuboso
 Viento del ESE
Viento: ESE 6 km/h
Temperatura: 19°C
Rocío: 12°C
Humedad: 64%
Barómetro: 1016 hPa
Clouds: Parcialmente nuboso
Visibility: 10 km
Cloud details: Parcialmente nuboso 549 m
Parcialmente nuboso 914 m
2018/05/22 11:00 LECV 221100Z 12003KT 9999 SCT018 SCT030 19/12 Q1016